createdAt,value
2023-03-07T00:01:26.695Z,96762.47
2023-03-07T00:04:00.742Z,96760.69
2023-03-07T00:06:35.146Z,96753.88
2023-03-07T00:09:08.506Z,96764.38
2023-03-07T00:11:41.516Z,96760.34
2023-03-07T00:14:14.498Z,96759.94
2023-03-07T00:16:47.623Z,96765.59
2023-03-07T00:19:20.804Z,96765.19
2023-03-07T00:21:55.343Z,96763.63
2023-03-07T00:24:28.395Z,96767.13
2023-03-07T00:27:03.877Z,96763.81
2023-03-07T00:29:36.988Z,96774.13
2023-03-07T00:32:10.137Z,96765.41
2023-03-07T00:34:43.229Z,96762.25
2023-03-07T00:37:17.687Z,96761.59
2023-03-07T00:39:50.787Z,96757.41
2023-03-07T00:42:23.946Z,96751.97
2023-03-07T00:44:57.058Z,96751.59
2023-03-07T00:47:30.131Z,96743.63
2023-03-07T00:50:04.290Z,96744.97
2023-03-07T00:52:38.734Z,96741.47
2023-03-07T00:55:12.110Z,96746.16
2023-03-07T00:57:45.234Z,96741.66
2023-03-07T01:00:18.795Z,96738.56
2023-03-07T01:02:52.522Z,96739.63
2023-03-07T01:05:25.711Z,96730.56
2023-03-07T01:08:00.943Z,96731.28
2023-03-07T01:10:34.517Z,96736.22
2023-03-07T01:13:08.152Z,96730.38
2023-03-07T01:15:41.309Z,96723.28
2023-03-07T01:18:14.461Z,96713.47
2023-03-07T01:20:47.665Z,96716.75
2023-03-07T01:23:22.106Z,96719.28
2023-03-07T01:25:55.224Z,96717.53
2023-03-07T01:28:28.388Z,96714.03
2023-03-07T01:31:02.646Z,96715.56
2023-03-07T01:33:35.771Z,96710.13
2023-03-07T01:36:18.964Z,96714.13
2023-03-07T01:38:56.233Z,96712.47
2023-03-07T01:41:32.198Z,96705.09
2023-03-07T01:44:16.424Z,96703.34
2023-03-07T01:46:53.154Z,96705.19
2023-03-07T01:49:30.864Z,96701.88
2023-03-07T01:52:08.648Z,96704.31
2023-03-07T01:54:49.027Z,96704.59
2023-03-07T01:57:25.825Z,96707.13
2023-03-07T02:00:06.982Z,96695.09
2023-03-07T02:02:42.528Z,96699.25
2023-03-07T02:05:21.651Z,96693.41
2023-03-07T02:07:57.245Z,96685.16
2023-03-07T02:10:34.142Z,96677.88
2023-03-07T02:13:07.337Z,96680.22
2023-03-07T02:15:40.758Z,96682.81
2023-03-07T02:18:17.786Z,96669.66
2023-03-07T02:21:00.936Z,96678.81
2023-03-07T02:23:45.435Z,96674.41
2023-03-07T02:26:26.631Z,96671.22
2023-03-07T02:29:02.680Z,96672.69
2023-03-07T02:31:35.720Z,96669.88
2023-03-07T02:34:21.095Z,96672.56
2023-03-07T02:36:59.639Z,96661.88
2023-03-07T02:39:33.121Z,96672.09
2023-03-07T02:42:13.619Z,96665.19
2023-03-07T02:44:48.911Z,96661.38
2023-03-07T02:47:22.005Z,96664.81
2023-03-07T02:49:55.670Z,96662.06
2023-03-07T02:52:29.832Z,96673.75
2023-03-07T02:55:03.357Z,96670.59
2023-03-07T02:57:36.985Z,96666.13
2023-03-07T03:00:14.093Z,96666.72
2023-03-07T03:02:47.293Z,96667.13
2023-03-07T03:05:20.350Z,96668.69
2023-03-07T03:07:53.725Z,96663.88
2023-03-07T03:10:26.755Z,96663.44
2023-03-07T03:12:59.857Z,96660.06
2023-03-07T03:15:34.258Z,96659.97
2023-03-07T03:18:07.390Z,96653.56
2023-03-07T03:20:40.946Z,96651.50
2023-03-07T03:23:14.144Z,96652.00
2023-03-07T03:25:47.303Z,96645.94
2023-03-07T03:28:20.867Z,96647.97
2023-03-07T03:31:04.904Z,96647.53
2023-03-07T03:33:39.312Z,96647.72
2023-03-07T03:36:15.837Z,96642.97
2023-03-07T03:38:49.421Z,96643.09
2023-03-07T03:41:22.522Z,96643.66
2023-03-07T03:43:55.599Z,96642.47
2023-03-07T03:46:30.060Z,96634.72
2023-03-07T03:49:03.438Z,96631.19
2023-03-07T03:51:36.484Z,96628.59
2023-03-07T03:54:09.808Z,96627.50
2023-03-07T03:56:42.882Z,96627.19
2023-03-07T03:59:16.101Z,96632.19
2023-03-07T04:01:50.734Z,96632.25
2023-03-07T04:04:24.199Z,96620.41
2023-03-07T04:06:57.268Z,96635.94
2023-03-07T04:09:30.311Z,96629.22
2023-03-07T04:12:03.587Z,96623.69
2023-03-07T04:14:36.632Z,96622.28
2023-03-07T04:17:11.032Z,96626.56
2023-03-07T04:19:44.077Z,96625.75
2023-03-07T04:22:17.082Z,96619.75
2023-03-07T04:24:50.097Z,96610.03
2023-03-07T04:27:23.138Z,96614.28
2023-03-07T04:29:56.217Z,96604.84
2023-03-07T04:32:30.694Z,96600.78
2023-03-07T04:35:03.780Z,96603.66
2023-03-07T04:37:36.798Z,96599.84
2023-03-07T04:40:11.673Z,96598.09
2023-03-07T04:42:44.712Z,96599.59
2023-03-07T04:45:17.967Z,96582.31
2023-03-07T04:47:52.343Z,96598.34
2023-03-07T04:50:25.425Z,96607.56
2023-03-07T04:52:58.599Z,96595.50
2023-03-07T04:55:31.701Z,96593.78
2023-03-07T04:58:04.751Z,96599.22
2023-03-07T05:00:37.795Z,96588.25
2023-03-07T05:03:14.195Z,96586.34
2023-03-07T05:05:47.213Z,96579.72
2023-03-07T05:08:20.495Z,96566.09
2023-03-07T05:10:53.492Z,96579.41
2023-03-07T05:13:26.806Z,96577.00
2023-03-07T05:16:00.986Z,96578.50
2023-03-07T05:18:35.356Z,96567.06
2023-03-07T05:21:08.539Z,96573.19
2023-03-07T05:23:41.718Z,96576.91
2023-03-07T05:26:14.742Z,96568.06
2023-03-07T05:28:48.201Z,96577.63
2023-03-07T05:31:21.220Z,96574.75
2023-03-07T05:33:55.928Z,96571.41
2023-03-07T05:36:29.458Z,96562.13
2023-03-07T05:39:03.548Z,96561.00
2023-03-07T05:41:36.586Z,96552.38
2023-03-07T05:44:09.869Z,96553.97
2023-03-07T05:46:42.853Z,96559.56
2023-03-07T05:49:17.206Z,96555.88
2023-03-07T05:51:50.208Z,96553.25
2023-03-07T05:54:23.264Z,96555.53
2023-03-07T05:56:56.303Z,96556.31
2023-03-07T05:59:29.320Z,96561.75
2023-03-07T06:02:02.317Z,96552.56
2023-03-07T06:04:36.695Z,96561.81
2023-03-07T06:07:09.661Z,96561.03
2023-03-07T06:09:42.662Z,96556.94
2023-03-07T06:12:15.761Z,96565.91
2023-03-07T06:14:48.765Z,96562.69
2023-03-07T06:17:21.801Z,96564.25
2023-03-07T06:19:56.281Z,96558.00
2023-03-07T06:22:31.773Z,96555.66
2023-03-07T06:25:05.293Z,96556.75
2023-03-07T06:27:40.214Z,96550.81
2023-03-07T06:30:14.629Z,96556.69
2023-03-07T06:32:47.647Z,96544.97
2023-03-07T06:35:22.346Z,96548.75
2023-03-07T06:37:55.411Z,96554.22
2023-03-07T06:40:28.421Z,96543.59
2023-03-07T06:43:01.480Z,96551.53
2023-03-07T06:45:34.994Z,96549.78
2023-03-07T06:48:08.140Z,96541.16
2023-03-07T06:50:42.495Z,96552.38
2023-03-07T06:53:16.033Z,96553.97
2023-03-07T06:55:50.901Z,96554.75
2023-03-07T06:58:24.040Z,96549.16
2023-03-07T07:00:57.085Z,96545.06
2023-03-07T07:03:30.407Z,96539.84
2023-03-07T07:06:04.949Z,96547.88
2023-03-07T07:08:38.678Z,96549.16
2023-03-07T07:11:12.474Z,96542.72
2023-03-07T07:13:45.845Z,96550.31
2023-03-07T07:16:19.720Z,96556.16
2023-03-07T07:18:53.019Z,96549.00
2023-03-07T07:21:27.366Z,96545.94
2023-03-07T07:24:00.458Z,96547.84
2023-03-07T07:26:33.466Z,96545.44
2023-03-07T07:29:06.526Z,96548.72
2023-03-07T07:31:39.641Z,96542.44
2023-03-07T07:34:13.123Z,96538.00
2023-03-07T07:36:47.453Z,96542.44
2023-03-07T07:39:21.748Z,96525.47
2023-03-07T07:41:54.889Z,96541.47
2023-03-07T07:44:31.449Z,96540.22
2023-03-07T07:47:04.685Z,96545.63
2023-03-07T07:49:37.716Z,96542.84
2023-03-07T07:52:12.059Z,96532.78
2023-03-07T07:54:45.096Z,96538.25
2023-03-07T07:57:18.121Z,96534.81
2023-03-07T07:59:51.082Z,96543.72
2023-03-07T08:02:24.436Z,96541.25
2023-03-07T08:04:57.510Z,96528.56
2023-03-07T08:07:31.864Z,96531.41
2023-03-07T08:10:06.123Z,96538.63
2023-03-07T08:12:39.127Z,96541.72
2023-03-07T08:15:13.625Z,96525.09
2023-03-07T08:17:46.778Z,96528.22
2023-03-07T08:20:22.398Z,96519.78
2023-03-07T08:22:56.846Z,96518.81
2023-03-07T08:25:29.928Z,96514.06
2023-03-07T08:28:05.060Z,96520.34
2023-03-07T08:30:38.709Z,96518.66
2023-03-07T08:33:11.735Z,96518.66
2023-03-07T08:35:44.724Z,96516.13
2023-03-07T08:38:19.161Z,96509.94
2023-03-07T08:40:52.165Z,96505.00
2023-03-07T08:43:25.226Z,96512.94
2023-03-07T08:45:59.128Z,96503.88
2023-03-07T08:48:32.448Z,96502.22
2023-03-07T08:51:07.463Z,96502.25
2023-03-07T08:53:43.049Z,96500.81
2023-03-07T08:56:18.483Z,96496.13
2023-03-07T08:58:54.501Z,96498.66
2023-03-07T09:01:27.664Z,96498.81
2023-03-07T09:04:00.711Z,96494.50
2023-03-07T09:06:33.719Z,96493.13
2023-03-07T09:09:08.092Z,96494.25
2023-03-07T09:11:41.170Z,96488.22
2023-03-07T09:14:14.157Z,96488.09
2023-03-07T09:16:47.130Z,96484.31
2023-03-07T09:19:20.157Z,96483.16
2023-03-07T09:21:53.146Z,96480.50
2023-03-07T09:24:27.620Z,96484.44
2023-03-07T09:27:00.636Z,96473.38
2023-03-07T09:29:33.706Z,96468.63
2023-03-07T09:32:07.208Z,96462.56
2023-03-07T09:34:40.610Z,96465.53
2023-03-07T09:37:13.676Z,96458.47
2023-03-07T09:39:50.258Z,96457.47
2023-03-07T09:42:29.761Z,96459.63
2023-03-07T09:45:21.841Z,96452.97
2023-03-07T09:48:37.131Z,96455.91
2023-03-07T09:51:18.387Z,96454.22
2023-03-07T09:53:55.026Z,96448.84
2023-03-07T09:56:34.210Z,96454.28
2023-03-07T09:59:22.806Z,96443.25
2023-03-07T10:02:06.298Z,96448.59
2023-03-07T10:04:47.032Z,96443.25
2023-03-07T10:07:25.817Z,96446.03
2023-03-07T10:10:02.930Z,96441.22
2023-03-07T10:12:54.495Z,96441.13
2023-03-07T10:15:45.577Z,96432.00
2023-03-07T10:18:46.839Z,96429.25
2023-03-07T10:21:27.894Z,96433.44
2023-03-07T10:24:37.434Z,96429.19
2023-03-07T10:27:12.826Z,96434.31
2023-03-07T10:29:50.771Z,96435.41
2023-03-07T10:32:32.128Z,96429.41
2023-03-07T10:35:19.126Z,96432.66
2023-03-07T10:37:55.691Z,96432.75
2023-03-07T10:40:35.703Z,96431.50
2023-03-07T10:43:23.700Z,96419.38
2023-03-07T10:46:22.344Z,96427.19
2023-03-07T10:49:10.223Z,96414.66
2023-03-07T10:51:54.946Z,96409.53
2023-03-07T10:54:32.325Z,96409.16
2023-03-07T10:57:10.097Z,96418.66
2023-03-07T10:59:44.880Z,96422.97
2023-03-07T11:02:35.975Z,96416.16
2023-03-07T11:05:31.102Z,96422.25
2023-03-07T11:08:27.878Z,96419.56
2023-03-07T11:11:03.199Z,96419.25
2023-03-07T11:13:36.228Z,96418.47
2023-03-07T11:16:18.171Z,96406.44
2023-03-07T11:18:52.601Z,96417.88
2023-03-07T11:21:31.288Z,96397.72
2023-03-07T11:24:07.544Z,96401.59
2023-03-07T11:26:42.576Z,96406.00
2023-03-07T11:29:16.100Z,96407.44
2023-03-07T11:32:00.612Z,96405.31
2023-03-07T11:34:42.400Z,96392.97
2023-03-07T11:37:29.126Z,96392.50
2023-03-07T11:40:23.304Z,96385.25
2023-03-07T11:43:07.508Z,96382.63
2023-03-07T11:45:51.123Z,96387.25
2023-03-07T11:48:43.210Z,96384.72
2023-03-07T11:51:35.726Z,96385.03
2023-03-07T11:54:20.923Z,96385.78
2023-03-07T11:57:04.994Z,96387.16
2023-03-07T12:00:01.981Z,96385.06
2023-03-07T12:03:08.894Z,96383.66
2023-03-07T12:06:09.488Z,96381.44
2023-03-07T12:08:57.070Z,96392.47
2023-03-07T12:11:48.768Z,96384.78
2023-03-07T12:14:33.622Z,96380.34
2023-03-07T12:17:22.002Z,96390.81
2023-03-07T12:20:31.848Z,96391.38
2023-03-07T12:23:15.471Z,96383.47
2023-03-07T12:25:54.984Z,96382.03
2023-03-07T12:28:33.528Z,96381.38
2023-03-07T12:31:12.118Z,96371.38
2023-03-07T12:33:55.398Z,96366.72
2023-03-07T12:36:35.671Z,96372.69
2023-03-07T12:39:19.872Z,96368.63
2023-03-07T12:42:06.002Z,96363.59
2023-03-07T12:44:44.546Z,96363.41
2023-03-07T12:47:26.446Z,96362.66
2023-03-07T12:50:06.155Z,96361.38
2023-03-07T12:52:44.867Z,96358.94
2023-03-07T12:55:27.074Z,96354.25
2023-03-07T12:58:08.850Z,96346.13
2023-03-07T13:00:48.562Z,96332.28
2023-03-07T13:03:35.547Z,96333.06
2023-03-07T13:06:16.921Z,96322.81
2023-03-07T13:08:53.089Z,96314.13
2023-03-07T13:11:28.636Z,96316.75
2023-03-07T13:14:03.992Z,96298.44
2023-03-07T13:16:41.240Z,96302.03
2023-03-07T13:19:53.980Z,96293.44
2023-03-07T13:23:13.015Z,96298.84
2023-03-07T13:25:57.214Z,96287.63
2023-03-07T13:28:51.617Z,96290.06
2023-03-07T13:31:44.202Z,96299.25
2023-03-07T13:34:51.439Z,96292.22
2023-03-07T13:37:54.398Z,96295.09
2023-03-07T13:40:58.388Z,96289.94
2023-03-07T13:43:59.669Z,96294.63
2023-03-07T13:46:55.116Z,96285.47
2023-03-07T13:49:49.213Z,96284.41
2023-03-07T13:52:39.467Z,96287.81
2023-03-07T13:55:32.920Z,96278.91
2023-03-07T13:58:21.617Z,96293.16
2023-03-07T14:01:00.045Z,96280.50
2023-03-07T14:03:39.345Z,96283.59
2023-03-07T14:06:19.136Z,96286.41
2023-03-07T14:08:53.148Z,96282.13
2023-03-07T14:11:34.679Z,96273.56
2023-03-07T14:14:41.084Z,96281.84
2023-03-07T14:17:44.568Z,96281.09
2023-03-07T14:20:28.982Z,96273.53
2023-03-07T14:23:21.765Z,96278.06
2023-03-07T14:26:05.080Z,96284.22
2023-03-07T14:28:38.205Z,96283.56
2023-03-07T14:31:25.178Z,96280.09
2023-03-07T14:33:59.011Z,96286.66
2023-03-07T14:36:33.961Z,96290.94
2023-03-07T14:39:13.192Z,96287.66
2023-03-07T14:41:57.919Z,96292.13
2023-03-07T14:45:12.171Z,96288.00
2023-03-07T14:48:27.981Z,96291.19
2023-03-07T14:51:13.881Z,96291.50
2023-03-07T14:53:48.690Z,96302.88
2023-03-07T14:56:25.319Z,96304.78
2023-03-07T14:59:01.117Z,96305.75
2023-03-07T15:01:37.870Z,96298.91
2023-03-07T15:04:25.429Z,96296.78
2023-03-07T15:07:01.256Z,96293.63
2023-03-07T15:09:35.830Z,96291.34
2023-03-07T15:12:15.691Z,96287.78
2023-03-07T15:14:52.349Z,96284.66
2023-03-07T15:17:29.099Z,96286.28
2023-03-07T15:20:07.554Z,96277.84
2023-03-07T15:22:43.824Z,96277.03
2023-03-07T15:25:25.960Z,96277.19
2023-03-07T15:28:01.699Z,96279.78
2023-03-07T15:30:37.602Z,96279.41
2023-03-07T15:33:17.921Z,96274.91
2023-03-07T15:36:32.164Z,96275.66
2023-03-07T15:39:28.785Z,96276.75
2023-03-07T15:42:07.205Z,96281.72
2023-03-07T15:44:40.257Z,96271.47
2023-03-07T15:47:18.094Z,96269.94
2023-03-07T15:49:54.246Z,96273.13
2023-03-07T15:52:31.957Z,96269.00
2023-03-07T15:55:08.543Z,96276.34
2023-03-07T15:57:52.562Z,96276.63
2023-03-07T16:00:33.450Z,96275.66
2023-03-07T16:03:25.483Z,96278.34
2023-03-07T16:06:00.951Z,96271.16
2023-03-07T16:08:34.245Z,96265.56
2023-03-07T16:11:08.852Z,96273.81
2023-03-07T16:13:45.368Z,96263.53
2023-03-07T16:16:23.569Z,96269.34
2023-03-07T16:18:58.256Z,96263.28
2023-03-07T16:21:31.252Z,96268.34
2023-03-07T16:24:04.663Z,96260.72
2023-03-07T16:26:37.660Z,96278.31
2023-03-07T16:29:16.933Z,96271.06
2023-03-07T16:31:50.334Z,96270.94
2023-03-07T16:34:24.014Z,96272.44
2023-03-07T16:36:57.350Z,96279.16
2023-03-07T16:39:30.306Z,96278.78
2023-03-07T16:42:04.151Z,96279.50
2023-03-07T16:44:40.718Z,96286.66
2023-03-07T16:47:17.093Z,96293.22
2023-03-07T16:49:50.962Z,96297.50
2023-03-07T16:52:25.686Z,96292.28
2023-03-07T16:54:58.846Z,96283.84
2023-03-07T16:57:32.042Z,96295.56
2023-03-07T17:00:08.570Z,96297.16
2023-03-07T17:02:41.664Z,96305.50
2023-03-07T17:05:18.779Z,96301.97
2023-03-07T17:07:51.945Z,96313.13
2023-03-07T17:10:27.407Z,96326.22
2023-03-07T17:13:02.416Z,96319.19
2023-03-07T17:15:37.185Z,96321.72
2023-03-07T17:18:11.935Z,96325.50
2023-03-07T17:20:44.992Z,96326.50
2023-03-07T17:23:21.917Z,96323.81
2023-03-07T17:25:55.154Z,96322.72
2023-03-07T17:28:28.224Z,96322.59
2023-03-07T17:31:02.629Z,96326.59
2023-03-07T17:33:35.797Z,96331.38
2023-03-07T17:36:12.186Z,96331.16
2023-03-07T17:38:45.358Z,96342.34
2023-03-07T17:41:18.644Z,96344.09
2023-03-07T17:43:51.638Z,96346.34
2023-03-07T17:46:26.048Z,96342.63
2023-03-07T17:48:59.075Z,96347.50
2023-03-07T17:51:32.386Z,96350.63
2023-03-07T17:54:08.293Z,96358.09
2023-03-07T17:56:41.632Z,96359.53
2023-03-07T17:59:14.649Z,96349.84
2023-03-07T18:01:49.061Z,96350.38
2023-03-07T18:04:22.122Z,96361.13
2023-03-07T18:06:55.171Z,96362.44
2023-03-07T18:09:28.538Z,96359.75
2023-03-07T18:12:01.909Z,96363.63
2023-03-07T18:14:34.925Z,96364.97
2023-03-07T18:17:09.354Z,96372.47
2023-03-07T18:19:42.346Z,96374.97
2023-03-07T18:22:15.452Z,96380.03
2023-03-07T18:24:48.486Z,96389.88
2023-03-07T18:27:21.537Z,96384.94
2023-03-07T18:29:54.545Z,96399.59
2023-03-07T18:32:30.551Z,96395.81
2023-03-07T18:35:03.847Z,96400.66
2023-03-07T18:37:37.027Z,96402.03
2023-03-07T18:40:12.714Z,96404.50
2023-03-07T18:42:45.779Z,96400.00
2023-03-07T18:45:18.940Z,96395.84
2023-03-07T18:47:53.308Z,96399.28
2023-03-07T18:50:26.483Z,96406.81
2023-03-07T18:52:59.777Z,96406.97
2023-03-07T18:55:34.547Z,96401.09
2023-03-07T18:58:07.643Z,96411.06
2023-03-07T19:00:40.711Z,96404.72
2023-03-07T19:03:16.438Z,96404.50
2023-03-07T19:05:51.135Z,96412.19
2023-03-07T19:08:24.177Z,96407.91
2023-03-07T19:10:57.360Z,96404.44
2023-03-07T19:13:31.035Z,96405.00
2023-03-07T19:16:06.519Z,96408.00
2023-03-07T19:18:41.460Z,96408.47
2023-03-07T19:21:19.008Z,96406.16
2023-03-07T19:23:53.515Z,96407.34
2023-03-07T19:26:26.980Z,96413.94
2023-03-07T19:29:00.162Z,96412.50
2023-03-07T19:31:34.970Z,96412.94
2023-03-07T19:34:10.850Z,96419.59
2023-03-07T19:36:44.110Z,96426.03
2023-03-07T19:39:20.496Z,96416.91
2023-03-07T19:41:53.584Z,96413.66
2023-03-07T19:44:26.643Z,96415.25
2023-03-07T19:46:59.644Z,96414.38
2023-03-07T19:49:36.083Z,96418.03
2023-03-07T19:52:09.287Z,96423.97
2023-03-07T19:54:42.325Z,96433.41
2023-03-07T19:57:16.124Z,96425.47
2023-03-07T19:59:53.646Z,96432.59
2023-03-07T20:02:29.381Z,96431.00
2023-03-07T20:05:05.825Z,96431.28
2023-03-07T20:07:38.912Z,96440.31
2023-03-07T20:10:13.004Z,96435.53
2023-03-07T20:12:46.051Z,96440.72
2023-03-07T20:15:19.106Z,96436.44
2023-03-07T20:17:52.164Z,96428.47
2023-03-07T20:20:26.521Z,96437.00
2023-03-07T20:23:00.387Z,96434.31
2023-03-07T20:25:33.434Z,96442.78
2023-03-07T20:28:06.708Z,96442.84
2023-03-07T20:30:40.692Z,96448.78
2023-03-07T20:33:13.858Z,96443.56
2023-03-07T20:35:48.290Z,96444.84
2023-03-07T20:38:21.415Z,96452.63
2023-03-07T20:41:02.427Z,96449.59
2023-03-07T20:43:36.170Z,96460.16
2023-03-07T20:46:13.007Z,96460.66
2023-03-07T20:48:47.315Z,96453.75
2023-03-07T20:51:24.827Z,96456.28
2023-03-07T20:53:59.804Z,96463.19
2023-03-07T20:56:35.578Z,96467.28
2023-03-07T20:59:11.231Z,96466.09
2023-03-07T21:01:44.632Z,96471.97
2023-03-07T21:04:20.544Z,96472.63
2023-03-07T21:06:54.977Z,96480.94
2023-03-07T21:09:28.338Z,96481.00
2023-03-07T21:12:01.651Z,96476.56
2023-03-07T21:14:34.997Z,96474.75
2023-03-07T21:17:09.150Z,96477.66
2023-03-07T21:19:42.183Z,96473.69
2023-03-07T21:22:16.722Z,96474.19
2023-03-07T21:24:49.755Z,96482.19
2023-03-07T21:27:22.800Z,96482.09
2023-03-07T21:29:55.824Z,96484.81
2023-03-07T21:32:28.883Z,96477.84
2023-03-07T21:35:04.165Z,96479.97
2023-03-07T21:37:38.622Z,96473.00
2023-03-07T21:40:13.668Z,96461.03
2023-03-07T21:42:46.895Z,96474.03
2023-03-07T21:45:20.294Z,96497.47
2023-03-07T21:47:54.277Z,96497.31
2023-03-07T21:50:27.629Z,96509.19
2023-03-07T21:53:02.046Z,96522.88
2023-03-07T21:55:35.060Z,96530.97
2023-03-07T21:58:08.096Z,96538.06
2023-03-07T22:00:41.113Z,96534.81
2023-03-07T22:03:14.167Z,96539.00
2023-03-07T22:05:47.345Z,96541.22
2023-03-07T22:08:22.190Z,96534.47
2023-03-07T22:11:00.183Z,96531.31
2023-03-07T22:13:35.742Z,96539.72
2023-03-07T22:16:12.881Z,96547.16
2023-03-07T22:18:45.945Z,96549.25
2023-03-07T22:21:21.059Z,96546.56
2023-03-07T22:23:57.914Z,96548.72
2023-03-07T22:26:33.183Z,96548.56
2023-03-07T22:29:06.332Z,96548.13
2023-03-07T22:31:39.413Z,96548.41
2023-03-07T22:34:12.507Z,96545.09
2023-03-07T22:36:45.585Z,96542.72
2023-03-07T22:39:20.190Z,96547.63
2023-03-07T22:41:53.280Z,96549.25
2023-03-07T22:44:26.414Z,96552.81
2023-03-07T22:46:59.767Z,96549.84
2023-03-07T22:49:33.282Z,96546.50
2023-03-07T22:52:06.807Z,96546.66
2023-03-07T22:54:43.446Z,96549.69
2023-03-07T22:57:16.577Z,96541.97
2023-03-07T22:59:49.890Z,96541.88
2023-03-07T23:02:22.961Z,96547.22
2023-03-07T23:04:55.976Z,96537.06
2023-03-07T23:07:29.027Z,96531.56
2023-03-07T23:10:03.755Z,96532.94
2023-03-07T23:12:36.855Z,96538.63
2023-03-07T23:15:10.599Z,96543.28
2023-03-07T23:17:43.634Z,96545.59
2023-03-07T23:20:18.816Z,96545.59
2023-03-07T23:22:51.915Z,96539.56
2023-03-07T23:25:26.297Z,96537.97
2023-03-07T23:27:59.357Z,96538.06
2023-03-07T23:30:32.385Z,96540.25
2023-03-07T23:33:05.778Z,96544.84
2023-03-07T23:35:38.891Z,96557.66
2023-03-07T23:38:13.820Z,96554.81
2023-03-07T23:40:48.197Z,96562.63
2023-03-07T23:43:21.241Z,96551.63
2023-03-07T23:45:54.379Z,96558.53
2023-03-07T23:48:27.615Z,96556.88
2023-03-07T23:51:00.640Z,96558.91
2023-03-07T23:53:33.742Z,96569.47
2023-03-07T23:56:10.059Z,96562.63
2023-03-07T23:58:43.866Z,96563.75
